sensor_id;sensor_type;location;lat;lon;timestamp;temperature;humidity
26952;DHT22;14507;52.418;13.398;2023-05-07T00:02:06;9.10;99.90
26952;DHT22;14507;52.418;13.398;2023-05-07T00:04:32;9.10;99.90
26952;DHT22;14507;52.418;13.398;2023-05-07T00:07:02;9.10;99.90
26952;DHT22;14507;52.418;13.398;2023-05-07T00:09:28;9.10;99.90
26952;DHT22;14507;52.418;13.398;2023-05-07T00:11:54;9.20;99.90
26952;DHT22;14507;52.418;13.398;2023-05-07T00:14:19;9.20;99.90
26952;DHT22;14507;52.418;13.398;2023-05-07T00:16:46;9.10;99.90
26952;DHT22;14507;52.418;13.398;2023-05-07T00:19:12;9.10;99.90
26952;DHT22;14507;52.418;13.398;2023-05-07T00:21:37;9.20;99.90
26952;DHT22;14507;52.418;13.398;2023-05-07T00:24:03;9.20;99.90
26952;DHT22;14507;52.418;13.398;2023-05-07T00:26:29;9.10;99.90
26952;DHT22;14507;52.418;13.398;2023-05-07T00:28:54;9.10;99.90
26952;DHT22;14507;52.418;13.398;2023-05-07T00:31:20;9.20;99.90
26952;DHT22;14507;52.418;13.398;2023-05-07T00:33:46;9.20;99.90
26952;DHT22;14507;52.418;13.398;2023-05-07T00:36:12;9.20;99.90
26952;DHT22;14507;52.418;13.398;2023-05-07T00:38:37;9.20;99.90
26952;DHT22;14507;52.418;13.398;2023-05-07T00:41:03;9.20;99.90
26952;DHT22;14507;52.418;13.398;2023-05-07T00:43:29;9.20;99.90
26952;DHT22;14507;52.418;13.398;2023-05-07T00:45:55;9.20;99.90
26952;DHT22;14507;52.418;13.398;2023-05-07T00:48:21;9.20;99.90
26952;DHT22;14507;52.418;13.398;2023-05-07T00:50:47;9.20;99.90
26952;DHT22;14507;52.418;13.398;2023-05-07T00:53:13;9.20;99.90
26952;DHT22;14507;52.418;13.398;2023-05-07T00:55:39;9.20;99.90
26952;DHT22;14507;52.418;13.398;2023-05-07T00:58:06;9.20;99.90
26952;DHT22;14507;52.418;13.398;2023-05-07T01:00:31;9.20;99.90
26952;DHT22;14507;52.418;13.398;2023-05-07T01:02:57;9.20;99.90
26952;DHT22;14507;52.418;13.398;2023-05-07T01:05:24;9.20;99.90
26952;DHT22;14507;52.418;13.398;2023-05-07T01:07:52;9.20;99.90
26952;DHT22;14507;52.418;13.398;2023-05-07T01:10:18;9.20;99.90
26952;DHT22;14507;52.418;13.398;2023-05-07T01:12:45;9.20;99.90
26952;DHT22;14507;52.418;13.398;2023-05-07T01:15:13;9.20;99.90
26952;DHT22;14507;52.418;13.398;2023-05-07T01:17:41;9.20;99.90
26952;DHT22;14507;52.418;13.398;2023-05-07T01:20:09;9.20;99.90
26952;DHT22;14507;52.418;13.398;2023-05-07T01:22:37;9.10;99.90
26952;DHT22;14507;52.418;13.398;2023-05-07T01:25:04;9.20;99.90
26952;DHT22;14507;52.418;13.398;2023-05-07T01:27:30;9.20;99.90
26952;DHT22;14507;52.418;13.398;2023-05-07T01:29:56;9.20;99.90
26952;DHT22;14507;52.418;13.398;2023-05-07T01:34:55;9.10;99.90
26952;DHT22;14507;52.418;13.398;2023-05-07T01:37:23;9.10;99.90
26952;DHT22;14507;52.418;13.398;2023-05-07T01:39:50;9.10;99.90
26952;DHT22;14507;52.418;13.398;2023-05-07T01:42:15;9.10;99.90
26952;DHT22;14507;52.418;13.398;2023-05-07T01:44:41;9.10;99.90
26952;DHT22;14507;52.418;13.398;2023-05-07T01:47:07;9.20;99.90
26952;DHT22;14507;52.418;13.398;2023-05-07T01:49:34;9.10;99.90
26952;DHT22;14507;52.418;13.398;2023-05-07T01:52:00;9.20;99.90
26952;DHT22;14507;52.418;13.398;2023-05-07T01:54:26;9.10;99.90
26952;DHT22;14507;52.418;13.398;2023-05-07T01:56:56;9.20;99.90
26952;DHT22;14507;52.418;13.398;2023-05-07T01:59:22;9.10;99.90
26952;DHT22;14507;52.418;13.398;2023-05-07T02:01:48;9.10;99.90
26952;DHT22;14507;52.418;13.398;2023-05-07T02:04:14;9.10;99.90
26952;DHT22;14507;52.418;13.398;2023-05-07T02:06:40;9.20;99.90
26952;DHT22;14507;52.418;13.398;2023-05-07T02:09:05;9.10;99.90
26952;DHT22;14507;52.418;13.398;2023-05-07T02:11:31;9.10;99.90
26952;DHT22;14507;52.418;13.398;2023-05-07T02:13:57;9.10;99.90
26952;DHT22;14507;52.418;13.398;2023-05-07T02:16:22;9.10;99.90
26952;DHT22;14507;52.418;13.398;2023-05-07T02:18:49;9.10;99.90
26952;DHT22;14507;52.418;13.398;2023-05-07T02:21:15;9.10;99.90
26952;DHT22;14507;52.418;13.398;2023-05-07T02:23:40;9.10;99.90
26952;DHT22;14507;52.418;13.398;2023-05-07T02:26:06;9.00;99.90
26952;DHT22;14507;52.418;13.398;2023-05-07T02:28:32;9.10;99.90
26952;DHT22;14507;52.418;13.398;2023-05-07T02:30:57;9.00;99.90
26952;DHT22;14507;52.418;13.398;2023-05-07T02:33:26;8.90;99.90
26952;DHT22;14507;52.418;13.398;2023-05-07T02:35:52;9.10;99.90
26952;DHT22;14507;52.418;13.398;2023-05-07T02:38:17;9.10;99.90
26952;DHT22;14507;52.418;13.398;2023-05-07T02:40:43;9.10;99.90
26952;DHT22;14507;52.418;13.398;2023-05-07T02:43:09;9.00;99.90
26952;DHT22;14507;52.418;13.398;2023-05-07T02:45:35;9.00;99.90
26952;DHT22;14507;52.418;13.398;2023-05-07T02:48:03;9.00;99.90
26952;DHT22;14507;52.418;13.398;2023-05-07T02:50:29;9.00;99.90
26952;DHT22;14507;52.418;13.398;2023-05-07T02:52:55;9.00;99.90
26952;DHT22;14507;52.418;13.398;2023-05-07T02:55:21;9.00;99.90
26952;DHT22;14507;52.418;13.398;2023-05-07T02:57:46;9.00;99.90
26952;DHT22;14507;52.418;13.398;2023-05-07T03:00:17;9.00;99.90
26952;DHT22;14507;52.418;13.398;2023-05-07T03:02:44;9.00;99.90
26952;DHT22;14507;52.418;13.398;2023-05-07T03:05:10;9.00;99.90
26952;DHT22;14507;52.418;13.398;2023-05-07T03:07:36;9.00;99.90
26952;DHT22;14507;52.418;13.398;2023-05-07T03:10:03;9.00;99.90
26952;DHT22;14507;52.418;13.398;2023-05-07T03:12:29;9.00;99.90
26952;DHT22;14507;52.418;13.398;2023-05-07T03:14:55;9.00;99.90
26952;DHT22;14507;52.418;13.398;2023-05-07T03:17:21;9.00;99.90
26952;DHT22;14507;52.418;13.398;2023-05-07T03:19:47;9.10;99.90
26952;DHT22;14507;52.418;13.398;2023-05-07T03:22:12;9.10;99.90
26952;DHT22;14507;52.418;13.398;2023-05-07T03:24:38;9.00;99.90
26952;DHT22;14507;52.418;13.398;2023-05-07T03:27:03;9.10;99.90
26952;DHT22;14507;52.418;13.398;2023-05-07T03:29:30;9.10;99.90
26952;DHT22;14507;52.418;13.398;2023-05-07T03:31:55;9.10;99.90
26952;DHT22;14507;52.418;13.398;2023-05-07T03:34:21;9.10;99.90
26952;DHT22;14507;52.418;13.398;2023-05-07T03:36:50;9.10;99.90
26952;DHT22;14507;52.418;13.398;2023-05-07T03:39:16;9.10;99.90
26952;DHT22;14507;52.418;13.398;2023-05-07T03:41:42;9.10;99.90
26952;DHT22;14507;52.418;13.398;2023-05-07T03:44:07;9.10;99.90
26952;DHT22;14507;52.418;13.398;2023-05-07T03:46:33;9.10;99.90
26952;DHT22;14507;52.418;13.398;2023-05-07T03:48:59;9.10;99.90
26952;DHT22;14507;52.418;13.398;2023-05-07T03:51:25;9.10;99.90
26952;DHT22;14507;52.418;13.398;2023-05-07T03:53:52;9.10;99.90
26952;DHT22;14507;52.418;13.398;2023-05-07T03:56:22;9.10;99.90
26952;DHT22;14507;52.418;13.398;2023-05-07T03:58:48;9.10;99.90
26952;DHT22;14507;52.418;13.398;2023-05-07T04:01:14;9.10;99.90
26952;DHT22;14507;52.418;13.398;2023-05-07T04:03:40;9.30;99.90
26952;DHT22;14507;52.418;13.398;2023-05-07T04:06:05;9.10;99.90
26952;DHT22;14507;52.418;13.398;2023-05-07T04:08:31;9.00;99.90
26952;DHT22;14507;52.418;13.398;2023-05-07T04:10:57;9.00;99.90
26952;DHT22;14507;52.418;13.398;2023-05-07T04:13:23;9.00;99.90
26952;DHT22;14507;52.418;13.398;2023-05-07T04:15:49;8.90;99.90
26952;DHT22;14507;52.418;13.398;2023-05-07T04:18:15;8.90;99.90
26952;DHT22;14507;52.418;13.398;2023-05-07T04:20:41;8.90;99.90
26952;DHT22;14507;52.418;13.398;2023-05-07T04:23:07;8.90;99.90
26952;DHT22;14507;52.418;13.398;2023-05-07T04:25:33;8.90;99.90
26952;DHT22;14507;52.418;13.398;2023-05-07T04:27:59;8.90;99.90
26952;DHT22;14507;52.418;13.398;2023-05-07T04:30:24;8.90;99.90
26952;DHT22;14507;52.418;13.398;2023-05-07T04:32:50;8.90;99.90
26952;DHT22;14507;52.418;13.398;2023-05-07T04:35:16;8.90;99.90
26952;DHT22;14507;52.418;13.398;2023-05-07T04:37:42;8.90;99.90
26952;DHT22;14507;52.418;13.398;2023-05-07T04:40:08;8.90;99.90
26952;DHT22;14507;52.418;13.398;2023-05-07T04:42:34;9.00;99.90
26952;DHT22;14507;52.418;13.398;2023-05-07T04:45:01;9.00;99.90
26952;DHT22;14507;52.418;13.398;2023-05-07T04:47:27;9.00;99.90
26952;DHT22;14507;52.418;13.398;2023-05-07T04:49:53;9.00;99.90
26952;DHT22;14507;52.418;13.398;2023-05-07T04:52:18;9.00;99.90
26952;DHT22;14507;52.418;13.398;2023-05-07T04:54:44;9.00;99.90
26952;DHT22;14507;52.418;13.398;2023-05-07T04:57:09;9.00;99.90
26952;DHT22;14507;52.418;13.398;2023-05-07T04:59:35;9.10;99.90
26952;DHT22;14507;52.418;13.398;2023-05-07T05:02:01;9.10;99.90
26952;DHT22;14507;52.418;13.398;2023-05-07T05:04:26;9.10;99.90
26952;DHT22;14507;52.418;13.398;2023-05-07T05:06:52;9.10;99.90
26952;DHT22;14507;52.418;13.398;2023-05-07T05:09:18;9.00;99.90
26952;DHT22;14507;52.418;13.398;2023-05-07T05:11:44;9.10;99.90
26952;DHT22;14507;52.418;13.398;2023-05-07T05:14:09;9.10;99.90
26952;DHT22;14507;52.418;13.398;2023-05-07T05:16:35;9.10;99.90
26952;DHT22;14507;52.418;13.398;2023-05-07T05:19:01;9.10;99.90
26952;DHT22;14507;52.418;13.398;2023-05-07T05:21:27;9.10;99.90
26952;DHT22;14507;52.418;13.398;2023-05-07T05:23:53;9.10;99.90
26952;DHT22;14507;52.418;13.398;2023-05-07T05:26:19;9.10;99.90
26952;DHT22;14507;52.418;13.398;2023-05-07T05:28:46;9.10;99.90
26952;DHT22;14507;52.418;13.398;2023-05-07T05:31:12;9.10;99.90
26952;DHT22;14507;52.418;13.398;2023-05-07T05:33:37;9.10;99.90
26952;DHT22;14507;52.418;13.398;2023-05-07T05:36:03;9.20;99.90
26952;DHT22;14507;52.418;13.398;2023-05-07T05:38:29;9.20;99.90
26952;DHT22;14507;52.418;13.398;2023-05-07T05:40:55;9.30;99.90
26952;DHT22;14507;52.418;13.398;2023-05-07T05:43:21;9.30;99.90
26952;DHT22;14507;52.418;13.398;2023-05-07T05:45:46;9.30;99.90
26952;DHT22;14507;52.418;13.398;2023-05-07T05:48:12;9.30;99.90
26952;DHT22;14507;52.418;13.398;2023-05-07T05:50:37;9.30;99.90
26952;DHT22;14507;52.418;13.398;2023-05-07T05:53:03;9.30;99.90
26952;DHT22;14507;52.418;13.398;2023-05-07T05:55:29;9.40;99.90
26952;DHT22;14507;52.418;13.398;2023-05-07T05:57:58;9.40;99.90
26952;DHT22;14507;52.418;13.398;2023-05-07T06:00:23;9.50;99.90
26952;DHT22;14507;52.418;13.398;2023-05-07T06:02:49;9.60;99.90
26952;DHT22;14507;52.418;13.398;2023-05-07T06:05:15;9.70;99.90
26952;DHT22;14507;52.418;13.398;2023-05-07T06:07:40;9.90;99.90
26952;DHT22;14507;52.418;13.398;2023-05-07T06:10:06;10.00;99.90
26952;DHT22;14507;52.418;13.398;2023-05-07T06:12:32;10.20;99.90
26952;DHT22;14507;52.418;13.398;2023-05-07T06:14:58;10.30;99.90
26952;DHT22;14507;52.418;13.398;2023-05-07T06:17:24;10.40;99.90
26952;DHT22;14507;52.418;13.398;2023-05-07T06:19:49;10.40;99.90
26952;DHT22;14507;52.418;13.398;2023-05-07T06:22:15;10.50;99.90
26952;DHT22;14507;52.418;13.398;2023-05-07T06:24:41;10.50;99.90
26952;DHT22;14507;52.418;13.398;2023-05-07T06:27:06;10.50;99.90
26952;DHT22;14507;52.418;13.398;2023-05-07T06:29:32;10.50;99.90
26952;DHT22;14507;52.418;13.398;2023-05-07T06:32:08;10.50;99.90
26952;DHT22;14507;52.418;13.398;2023-05-07T06:34:34;10.50;99.90
26952;DHT22;14507;52.418;13.398;2023-05-07T06:37:00;10.40;99.90
26952;DHT22;14507;52.418;13.398;2023-05-07T06:39:26;10.30;99.90
26952;DHT22;14507;52.418;13.398;2023-05-07T06:41:52;10.30;99.90
26952;DHT22;14507;52.418;13.398;2023-05-07T06:44:17;10.30;99.90
26952;DHT22;14507;52.418;13.398;2023-05-07T06:46:43;10.30;99.90
26952;DHT22;14507;52.418;13.398;2023-05-07T06:49:08;10.30;99.90
26952;DHT22;14507;52.418;13.398;2023-05-07T06:51:34;10.20;99.90
26952;DHT22;14507;52.418;13.398;2023-05-07T06:54:00;10.30;99.90
26952;DHT22;14507;52.418;13.398;2023-05-07T06:56:25;10.30;99.90
26952;DHT22;14507;52.418;13.398;2023-05-07T06:58:51;10.30;99.90
26952;DHT22;14507;52.418;13.398;2023-05-07T07:01:17;10.30;99.90
26952;DHT22;14507;52.418;13.398;2023-05-07T07:03:42;10.30;99.90
26952;DHT22;14507;52.418;13.398;2023-05-07T07:06:08;10.30;99.90
26952;DHT22;14507;52.418;13.398;2023-05-07T07:08:33;10.40;99.90
26952;DHT22;14507;52.418;13.398;2023-05-07T07:11:00;10.40;99.90
26952;DHT22;14507;52.418;13.398;2023-05-07T07:13:25;10.40;99.90
26952;DHT22;14507;52.418;13.398;2023-05-07T07:15:51;10.50;99.90
26952;DHT22;14507;52.418;13.398;2023-05-07T07:18:18;10.60;99.90
26952;DHT22;14507;52.418;13.398;2023-05-07T07:20:44;10.70;99.90
26952;DHT22;14507;52.418;13.398;2023-05-07T07:23:10;11.00;99.90
26952;DHT22;14507;52.418;13.398;2023-05-07T07:25:35;11.30;99.90
26952;DHT22;14507;52.418;13.398;2023-05-07T07:28:01;11.40;99.90
26952;DHT22;14507;52.418;13.398;2023-05-07T07:30:27;11.50;99.90
26952;DHT22;14507;52.418;13.398;2023-05-07T07:32:52;11.50;99.90
26952;DHT22;14507;52.418;13.398;2023-05-07T07:35:18;11.60;99.90
26952;DHT22;14507;52.418;13.398;2023-05-07T07:37:44;11.90;99.90
26952;DHT22;14507;52.418;13.398;2023-05-07T07:40:11;12.10;99.90
26952;DHT22;14507;52.418;13.398;2023-05-07T07:42:36;12.30;99.90
26952;DHT22;14507;52.418;13.398;2023-05-07T07:45:02;12.60;99.90
26952;DHT22;14507;52.418;13.398;2023-05-07T07:47:28;13.30;99.90
26952;DHT22;14507;52.418;13.398;2023-05-07T07:49:54;13.80;99.90
26952;DHT22;14507;52.418;13.398;2023-05-07T07:52:19;14.10;99.90
26952;DHT22;14507;52.418;13.398;2023-05-07T07:54:45;14.50;99.90
26952;DHT22;14507;52.418;13.398;2023-05-07T07:57:11;14.80;99.90
26952;DHT22;14507;52.418;13.398;2023-05-07T07:59:36;15.40;99.90
26952;DHT22;14507;52.418;13.398;2023-05-07T08:02:02;15.30;99.90
26952;DHT22;14507;52.418;13.398;2023-05-07T08:04:28;15.50;99.70
26952;DHT22;14507;52.418;13.398;2023-05-07T08:06:53;15.70;99.00
26952;DHT22;14507;52.418;13.398;2023-05-07T08:09:19;15.80;99.20
26952;DHT22;14507;52.418;13.398;2023-05-07T08:11:45;15.30;99.30
26952;DHT22;14507;52.418;13.398;2023-05-07T08:14:11;15.20;99.90
26952;DHT22;14507;52.418;13.398;2023-05-07T08:16:37;15.70;98.70
26952;DHT22;14507;52.418;13.398;2023-05-07T08:19:02;15.70;98.50
26952;DHT22;14507;52.418;13.398;2023-05-07T08:21:28;15.50;99.30
26952;DHT22;14507;52.418;13.398;2023-05-07T08:23:54;15.60;98.70
26952;DHT22;14507;52.418;13.398;2023-05-07T08:26:20;15.50;98.50
26952;DHT22;14507;52.418;13.398;2023-05-07T08:28:45;15.50;98.60
26952;DHT22;14507;52.418;13.398;2023-05-07T08:31:11;15.90;98.70
26952;DHT22;14507;52.418;13.398;2023-05-07T08:33:37;16.40;97.50
26952;DHT22;14507;52.418;13.398;2023-05-07T08:36:04;16.40;97.80
26952;DHT22;14507;52.418;13.398;2023-05-07T08:38:30;16.60;97.30
26952;DHT22;14507;52.418;13.398;2023-05-07T08:40:56;16.80;98.00
26952;DHT22;14507;52.418;13.398;2023-05-07T08:43:23;16.90;96.90
26952;DHT22;14507;52.418;13.398;2023-05-07T08:45:53;16.80;96.40
26952;DHT22;14507;52.418;13.398;2023-05-07T08:48:22;16.80;96.30
26952;DHT22;14507;52.418;13.398;2023-05-07T08:50:50;16.80;96.50
26952;DHT22;14507;52.418;13.398;2023-05-07T08:53:17;16.60;96.00
26952;DHT22;14507;52.418;13.398;2023-05-07T08:55:43;16.00;96.80
26952;DHT22;14507;52.418;13.398;2023-05-07T08:58:09;15.60;97.50
26952;DHT22;14507;52.418;13.398;2023-05-07T09:00:36;15.50;97.80
26952;DHT22;14507;52.418;13.398;2023-05-07T09:03:02;15.30;98.20
26952;DHT22;14507;52.418;13.398;2023-05-07T09:05:28;15.20;98.30
26952;DHT22;14507;52.418;13.398;2023-05-07T09:07:53;14.90;98.00
26952;DHT22;14507;52.418;13.398;2023-05-07T09:10:21;14.70;98.40
26952;DHT22;14507;52.418;13.398;2023-05-07T09:12:47;14.40;98.70
26952;DHT22;14507;52.418;13.398;2023-05-07T09:15:13;14.20;99.30
26952;DHT22;14507;52.418;13.398;2023-05-07T09:17:39;14.10;99.80
26952;DHT22;14507;52.418;13.398;2023-05-07T09:20:06;14.30;99.70
26952;DHT22;14507;52.418;13.398;2023-05-07T09:22:33;14.40;99.30
26952;DHT22;14507;52.418;13.398;2023-05-07T09:24:59;14.40;99.30
26952;DHT22;14507;52.418;13.398;2023-05-07T09:27:25;14.30;99.50
26952;DHT22;14507;52.418;13.398;2023-05-07T09:29:51;14.20;99.30
26952;DHT22;14507;52.418;13.398;2023-05-07T09:32:17;14.30;99.90
26952;DHT22;14507;52.418;13.398;2023-05-07T09:34:43;14.50;99.10
26952;DHT22;14507;52.418;13.398;2023-05-07T09:37:08;14.70;99.00
26952;DHT22;14507;52.418;13.398;2023-05-07T09:39:42;14.90;98.40
26952;DHT22;14507;52.418;13.398;2023-05-07T09:42:08;14.70;98.60
26952;DHT22;14507;52.418;13.398;2023-05-07T09:44:34;14.60;98.60
26952;DHT22;14507;52.418;13.398;2023-05-07T09:47:05;14.50;99.40
26952;DHT22;14507;52.418;13.398;2023-05-07T09:49:35;14.60;99.10
26952;DHT22;14507;52.418;13.398;2023-05-07T09:52:05;14.60;99.00
26952;DHT22;14507;52.418;13.398;2023-05-07T09:54:37;14.60;98.80
26952;DHT22;14507;52.418;13.398;2023-05-07T09:57:10;14.40;99.00
26952;DHT22;14507;52.418;13.398;2023-05-07T09:59:37;14.30;99.90
26952;DHT22;14507;52.418;13.398;2023-05-07T10:02:04;14.30;99.90
26952;DHT22;14507;52.418;13.398;2023-05-07T10:04:31;14.30;99.90
26952;DHT22;14507;52.418;13.398;2023-05-07T10:06:58;14.40;99.80
26952;DHT22;14507;52.418;13.398;2023-05-07T10:09:26;14.70;98.80
26952;DHT22;14507;52.418;13.398;2023-05-07T10:11:52;14.80;98.10
26952;DHT22;14507;52.418;13.398;2023-05-07T10:14:21;14.90;98.50
26952;DHT22;14507;52.418;13.398;2023-05-07T10:16:47;15.10;98.60
26952;DHT22;14507;52.418;13.398;2023-05-07T10:19:14;15.40;98.00
26952;DHT22;14507;52.418;13.398;2023-05-07T10:21:56;15.20;98.30
26952;DHT22;14507;52.418;13.398;2023-05-07T10:24:34;15.10;98.20
26952;DHT22;14507;52.418;13.398;2023-05-07T10:27:04;15.00;99.50
26952;DHT22;14507;52.418;13.398;2023-05-07T10:34:47;14.80;98.40
26952;DHT22;14507;52.418;13.398;2023-05-07T10:37:14;14.90;98.50
26952;DHT22;14507;52.418;13.398;2023-05-07T10:39:40;15.00;98.30
26952;DHT22;14507;52.418;13.398;2023-05-07T10:42:14;15.00;98.00
26952;DHT22;14507;52.418;13.398;2023-05-07T10:44:40;15.10;97.60
26952;DHT22;14507;52.418;13.398;2023-05-07T10:47:14;15.10;98.00
26952;DHT22;14507;52.418;13.398;2023-05-07T10:52:20;15.20;97.40
26952;DHT22;14507;52.418;13.398;2023-05-07T10:54:46;15.30;98.20
26952;DHT22;14507;52.418;13.398;2023-05-07T10:59:56;15.80;96.10
26952;DHT22;14507;52.418;13.398;2023-05-07T11:02:22;15.60;96.40
26952;DHT22;14507;52.418;13.398;2023-05-07T11:05:18;15.50;98.00
26952;DHT22;14507;52.418;13.398;2023-05-07T11:07:54;15.60;96.70
26952;DHT22;14507;52.418;13.398;2023-05-07T11:10:20;15.60;97.30
26952;DHT22;14507;52.418;13.398;2023-05-07T11:12:47;15.60;96.40
26952;DHT22;14507;52.418;13.398;2023-05-07T11:15:13;15.50;96.90
26952;DHT22;14507;52.418;13.398;2023-05-07T11:17:57;15.30;97.90
26952;DHT22;14507;52.418;13.398;2023-05-07T11:20:46;15.30;98.30
26952;DHT22;14507;52.418;13.398;2023-05-07T11:26:00;15.40;96.60
26952;DHT22;14507;52.418;13.398;2023-05-07T11:28:28;15.40;96.50
26952;DHT22;14507;52.418;13.398;2023-05-07T11:30:54;15.40;97.00
26952;DHT22;14507;52.418;13.398;2023-05-07T11:33:20;15.50;96.60
26952;DHT22;14507;52.418;13.398;2023-05-07T11:35:46;15.60;97.10
26952;DHT22;14507;52.418;13.398;2023-05-07T11:38:12;15.70;96.70
26952;DHT22;14507;52.418;13.398;2023-05-07T11:41:07;15.90;97.30
26952;DHT22;14507;52.418;13.398;2023-05-07T11:43:33;16.10;96.50
26952;DHT22;14507;52.418;13.398;2023-05-07T11:46:11;16.10;95.50
26952;DHT22;14507;52.418;13.398;2023-05-07T11:48:37;16.30;95.80
26952;DHT22;14507;52.418;13.398;2023-05-07T11:51:05;16.40;96.10
26952;DHT22;14507;52.418;13.398;2023-05-07T11:53:42;16.50;95.30
26952;DHT22;14507;52.418;13.398;2023-05-07T11:56:12;16.50;95.70
26952;DHT22;14507;52.418;13.398;2023-05-07T11:58:39;16.60;96.30
26952;DHT22;14507;52.418;13.398;2023-05-07T12:01:07;16.80;94.90
26952;DHT22;14507;52.418;13.398;2023-05-07T12:03:34;16.80;94.50
26952;DHT22;14507;52.418;13.398;2023-05-07T12:06:00;16.80;94.10
26952;DHT22;14507;52.418;13.398;2023-05-07T12:08:26;16.60;95.70
26952;DHT22;14507;52.418;13.398;2023-05-07T12:10:51;16.70;94.80
26952;DHT22;14507;52.418;13.398;2023-05-07T12:13:18;16.50;93.60
26952;DHT22;14507;52.418;13.398;2023-05-07T12:15:44;16.60;94.50
26952;DHT22;14507;52.418;13.398;2023-05-07T12:18:11;16.80;94.50
26952;DHT22;14507;52.418;13.398;2023-05-07T12:20:37;16.80;94.20
26952;DHT22;14507;52.418;13.398;2023-05-07T12:23:03;16.50;93.60
26952;DHT22;14507;52.418;13.398;2023-05-07T12:25:35;16.20;94.00
26952;DHT22;14507;52.418;13.398;2023-05-07T12:28:05;16.00;94.40
26952;DHT22;14507;52.418;13.398;2023-05-07T12:30:37;15.90;95.50
26952;DHT22;14507;52.418;13.398;2023-05-07T12:33:03;15.90;94.10
26952;DHT22;14507;52.418;13.398;2023-05-07T12:35:40;15.90;94.40
26952;DHT22;14507;52.418;13.398;2023-05-07T12:38:10;16.00;94.90
26952;DHT22;14507;52.418;13.398;2023-05-07T12:40:38;16.10;95.00
26952;DHT22;14507;52.418;13.398;2023-05-07T12:43:04;16.20;94.30
26952;DHT22;14507;52.418;13.398;2023-05-07T12:45:30;16.30;93.50
26952;DHT22;14507;52.418;13.398;2023-05-07T12:47:56;16.40;93.90
26952;DHT22;14507;52.418;13.398;2023-05-07T12:50:22;16.50;93.80
26952;DHT22;14507;52.418;13.398;2023-05-07T12:52:48;16.50;94.90
26952;DHT22;14507;52.418;13.398;2023-05-07T12:55:15;16.60;94.20
26952;DHT22;14507;52.418;13.398;2023-05-07T12:57:43;16.70;93.70
26952;DHT22;14507;52.418;13.398;2023-05-07T13:00:09;16.60;93.20
26952;DHT22;14507;52.418;13.398;2023-05-07T13:02:39;16.60;93.70
26952;DHT22;14507;52.418;13.398;2023-05-07T13:05:06;16.80;92.80
26952;DHT22;14507;52.418;13.398;2023-05-07T13:07:31;16.90;93.50
26952;DHT22;14507;52.418;13.398;2023-05-07T13:09:57;17.00;92.40
26952;DHT22;14507;52.418;13.398;2023-05-07T13:12:22;17.00;92.90
26952;DHT22;14507;52.418;13.398;2023-05-07T13:14:48;17.00;92.20
26952;DHT22;14507;52.418;13.398;2023-05-07T13:17:14;17.00;92.90
26952;DHT22;14507;52.418;13.398;2023-05-07T13:19:39;17.00;92.40
26952;DHT22;14507;52.418;13.398;2023-05-07T13:22:05;17.20;93.00
26952;DHT22;14507;52.418;13.398;2023-05-07T13:24:31;17.40;91.40
26952;DHT22;14507;52.418;13.398;2023-05-07T13:26:56;17.40;92.20
26952;DHT22;14507;52.418;13.398;2023-05-07T13:29:22;17.40;91.30
26952;DHT22;14507;52.418;13.398;2023-05-07T13:31:54;17.40;91.70
26952;DHT22;14507;52.418;13.398;2023-05-07T13:34:20;17.20;91.90
26952;DHT22;14507;52.418;13.398;2023-05-07T13:36:46;17.30;92.80
26952;DHT22;14507;52.418;13.398;2023-05-07T13:39:11;17.50;91.60
26952;DHT22;14507;52.418;13.398;2023-05-07T13:41:37;17.60;92.60
26952;DHT22;14507;52.418;13.398;2023-05-07T13:44:03;17.60;92.00
26952;DHT22;14507;52.418;13.398;2023-05-07T13:46:28;17.40;91.60
26952;DHT22;14507;52.418;13.398;2023-05-07T13:48:55;17.40;92.50
26952;DHT22;14507;52.418;13.398;2023-05-07T13:51:21;17.50;91.70
26952;DHT22;14507;52.418;13.398;2023-05-07T13:53:46;17.40;91.90
26952;DHT22;14507;52.418;13.398;2023-05-07T13:56:12;17.30;91.50
26952;DHT22;14507;52.418;13.398;2023-05-07T13:58:38;17.30;91.70
26952;DHT22;14507;52.418;13.398;2023-05-07T14:01:04;17.30;91.20
26952;DHT22;14507;52.418;13.398;2023-05-07T14:03:29;17.20;91.60
26952;DHT22;14507;52.418;13.398;2023-05-07T14:05:57;17.10;92.60
26952;DHT22;14507;52.418;13.398;2023-05-07T14:08:25;17.20;92.50
26952;DHT22;14507;52.418;13.398;2023-05-07T14:10:51;17.20;91.50
26952;DHT22;14507;52.418;13.398;2023-05-07T14:13:17;17.30;93.10
26952;DHT22;14507;52.418;13.398;2023-05-07T14:15:43;17.30;92.20
26952;DHT22;14507;52.418;13.398;2023-05-07T14:21:04;17.30;91.90
26952;DHT22;14507;52.418;13.398;2023-05-07T14:23:31;17.20;91.60
26952;DHT22;14507;52.418;13.398;2023-05-07T14:25:57;17.20;92.50
26952;DHT22;14507;52.418;13.398;2023-05-07T14:28:23;17.20;91.50
26952;DHT22;14507;52.418;13.398;2023-05-07T14:30:49;17.10;91.30
26952;DHT22;14507;52.418;13.398;2023-05-07T14:33:15;16.90;92.50
26952;DHT22;14507;52.418;13.398;2023-05-07T14:35:40;16.90;91.70
26952;DHT22;14507;52.418;13.398;2023-05-07T14:38:06;16.90;92.40
26952;DHT22;14507;52.418;13.398;2023-05-07T14:40:32;16.90;92.30
26952;DHT22;14507;52.418;13.398;2023-05-07T14:42:57;16.90;92.10
26952;DHT22;14507;52.418;13.398;2023-05-07T14:45:23;17.00;92.20
26952;DHT22;14507;52.418;13.398;2023-05-07T14:47:49;16.90;91.80
26952;DHT22;14507;52.418;13.398;2023-05-07T14:50:14;17.00;92.30
26952;DHT22;14507;52.418;13.398;2023-05-07T14:52:40;17.00;92.10
26952;DHT22;14507;52.418;13.398;2023-05-07T14:55:06;16.90;91.80
26952;DHT22;14507;52.418;13.398;2023-05-07T14:57:31;16.70;92.10
26952;DHT22;14507;52.418;13.398;2023-05-07T15:00:01;16.60;92.30
26952;DHT22;14507;52.418;13.398;2023-05-07T15:02:26;16.60;92.10
26952;DHT22;14507;52.418;13.398;2023-05-07T15:04:52;16.40;92.90
26952;DHT22;14507;52.418;13.398;2023-05-07T15:07:18;16.30;93.40
26952;DHT22;14507;52.418;13.398;2023-05-07T15:09:44;16.30;93.50
26952;DHT22;14507;52.418;13.398;2023-05-07T15:12:10;16.20;93.70
26952;DHT22;14507;52.418;13.398;2023-05-07T15:14:37;16.20;93.30
26952;DHT22;14507;52.418;13.398;2023-05-07T15:17:03;16.20;93.50
26952;DHT22;14507;52.418;13.398;2023-05-07T15:19:28;16.10;93.40
26952;DHT22;14507;52.418;13.398;2023-05-07T15:21:58;16.10;93.50
26952;DHT22;14507;52.418;13.398;2023-05-07T15:24:30;16.00;93.60
26952;DHT22;14507;52.418;13.398;2023-05-07T15:26:56;15.90;93.70
26952;DHT22;14507;52.418;13.398;2023-05-07T15:29:23;15.80;94.10
26952;DHT22;14507;52.418;13.398;2023-05-07T15:31:49;15.70;93.90
26952;DHT22;14507;52.418;13.398;2023-05-07T15:34:14;15.70;93.60
26952;DHT22;14507;52.418;13.398;2023-05-07T15:36:40;15.70;93.80
26952;DHT22;14507;52.418;13.398;2023-05-07T15:39:06;15.80;93.60